Terminal Aerodrome Forecast
Issued by NWS

Home | Current Version | Previous Version | Text Only | Print | Product List | Glossary On
Versions: 1 2 3 4 5 6 7 8 9 10 11 12 13 14 15 16 17 18 19 20 21 22 23 24 25 26
320
FTUS41 KBUF 291524 AAA
TAFJHW
TAF AMD
KJHW 291524Z 2915/3012 10004KT P6SM VCSH OVC009
     FM291900 01007KT 6SM -SHRA BKN009 BKN012 OVC070
     FM300000 03006KT P6SM BKN015 OVC060
     FM300600 05004KT P6SM BKN035 BKN070
     FM301100 11004KT P6SM FEW035 SCT250
      AMD LTD TO CLD VIS AND WIND=

USA.gov is the U.S. government's official web portal to all federal, state and local government web resources and services.